Time;durP1;ratioP1;P1;durP2;ratioP2;P2;SDS_P1;SDS_P2;PMS_P1;PMS_P2;Temp;Humidity;BMP_temperature;BMP_pressure;BME280_temperature;BME280_humidity;BME280_pressure;Samples;Min_cycle;Max_cycle;Signal;HPM_P1;HPM_P2
2023/12/14 00:01:33;;;;;;;;;;;4.90;99.90;;;;;;5108627;27;20002;-77
2023/12/14 00:03:59;;;;;;;;;;;4.90;99.90;;;;;;5107503;27;19934;-77
2023/12/14 00:06:24;;;;;;;;;;;4.90;99.90;;;;;;5094705;27;19937;-77
2023/12/14 00:08:50;;;;;;;;;;;4.90;99.90;;;;;;5116313;27;19938;-77
2023/12/14 00:11:16;;;;;;;;;;;4.90;99.90;;;;;;5109001;27;19971;-77
2023/12/14 00:13:42;;;;;;;;;;;4.90;99.90;;;;;;5103266;27;20276;-77
2023/12/14 00:16:07;;;;;;;;;;;4.90;99.90;;;;;;5108592;27;19934;-76
2023/12/14 00:18:33;;;;;;;;;;;4.90;99.90;;;;;;5109196;27;19931;-77
2023/12/14 00:20:59;;;;;;;;;;;4.90;99.90;;;;;;5091055;27;19972;-76
2023/12/14 00:23:24;;;;;;;;;;;4.90;99.90;;;;;;5105325;27;19930;-76
2023/12/14 00:25:50;;;;;;;;;;;4.90;99.90;;;;;;5090710;27;20419;-76
2023/12/14 00:28:16;;;;;;;;;;;4.90;99.90;;;;;;5105503;27;19931;-76
2023/12/14 00:30:41;;;;;;;;;;;4.90;99.90;;;;;;5103269;27;19931;-76
2023/12/14 00:33:07;;;;;;;;;;;4.80;99.90;;;;;;5077587;27;19927;-77
2023/12/14 00:35:32;;;;;;;;;;;4.80;99.90;;;;;;5092375;27;20019;-76
2023/12/14 00:37:58;;;;;;;;;;;4.80;99.90;;;;;;5093317;27;19923;-75
2023/12/14 00:40:25;;;;;;;;;;;4.80;99.90;;;;;;5104039;27;19932;-76
2023/12/14 00:42:50;;;;;;;;;;;4.80;99.90;;;;;;5109019;27;19948;-76
2023/12/14 00:45:16;;;;;;;;;;;4.80;99.90;;;;;;5109600;27;19931;-77
2023/12/14 00:47:41;;;;;;;;;;;4.80;99.90;;;;;;5093547;27;20479;-76
2023/12/14 00:50:08;;;;;;;;;;;4.80;99.90;;;;;;5097124;27;20050;-77
2023/12/14 00:52:33;;;;;;;;;;;4.80;99.90;;;;;;5105851;27;20436;-77
2023/12/14 00:54:59;;;;;;;;;;;4.80;99.90;;;;;;5103959;27;20025;-76
2023/12/14 00:57:24;;;;;;;;;;;4.80;99.90;;;;;;5091804;27;20022;-76
2023/12/14 00:59:50;;;;;;;;;;;5.10;99.90;;;;;;5096288;27;20070;-76
2023/12/14 01:02:16;;;;;;;;;;;4.80;99.90;;;;;;5107743;27;19983;-76
2023/12/14 01:04:42;;;;;;;;;;;4.80;99.90;;;;;;5102363;27;20281;-77
2023/12/14 01:07:07;;;;;;;;;;;4.80;99.90;;;;;;5102053;27;20291;-76
2023/12/14 01:09:33;;;;;;;;;;;4.80;99.90;;;;;;5108764;27;19927;-77
2023/12/14 01:11:59;;;;;;;;;;;4.80;99.90;;;;;;5105197;27;19934;-77
2023/12/14 01:14:24;;;;;;;;;;;4.80;99.90;;;;;;5087133;27;19946;-76
2023/12/14 01:16:50;;;;;;;;;;;4.80;99.90;;;;;;5103281;27;19950;-76
2023/12/14 01:19:15;;;;;;;;;;;4.80;99.90;;;;;;5108371;27;19962;-76
2023/12/14 01:21:41;;;;;;;;;;;4.80;99.90;;;;;;5106710;27;19934;-76
2023/12/14 01:24:07;;;;;;;;;;;4.80;99.90;;;;;;5095478;27;19984;-77
2023/12/14 01:26:32;;;;;;;;;;;4.80;99.90;;;;;;5104021;27;19931;-76
2023/12/14 01:28:59;;;;;;;;;;;4.80;99.90;;;;;;5108724;27;19931;-77
2023/12/14 01:31:25;;;;;;;;;;;4.80;99.90;;;;;;5113050;27;19980;-76
2023/12/14 01:33:51;;;;;;;;;;;4.80;99.90;;;;;;5109032;27;20501;-77
2023/12/14 01:36:23;;;;;;;;;;;4.80;99.90;;;;;;5106795;27;19970;-77
2023/12/14 01:38:49;;;;;;;;;;;4.80;99.90;;;;;;5087191;27;19927;-77
2023/12/14 01:41:15;;;;;;;;;;;4.80;99.90;;;;;;5103039;27;19927;-77
2023/12/14 01:43:40;;;;;;;;;;;4.80;99.90;;;;;;5107364;27;19931;-77
2023/12/14 01:46:06;;;;;;;;;;;4.90;99.90;;;;;;5091172;27;19931;-77
2023/12/14 01:48:31;;;;;;;;;;;4.80;99.90;;;;;;5102000;27;20281;-76
2023/12/14 01:50:57;;;;;;;;;;;4.70;99.90;;;;;;5088383;27;19923;-77
2023/12/14 01:53:23;;;;;;;;;;;4.70;99.90;;;;;;5107890;27;19923;-77
2023/12/14 01:55:48;;;;;;;;;;;4.70;99.90;;;;;;5104663;27;20028;-77
2023/12/14 01:58:14;;;;;;;;;;;4.70;99.90;;;;;;5086982;27;20127;-76
2023/12/14 02:00:46;;;;;;;;;;;4.70;99.90;;;;;;5111017;27;19935;-77
2023/12/14 02:03:11;;;;;;;;;;;4.80;99.90;;;;;;5107463;27;19966;-77
2023/12/14 02:05:37;;;;;;;;;;;4.80;99.90;;;;;;5111578;27;21498;-77
2023/12/14 02:08:03;;;;;;;;;;;4.70;99.90;;;;;;5125360;27;19927;-77
2023/12/14 02:10:28;;;;;;;;;;;4.80;99.90;;;;;;5107649;27;19970;-76
2023/12/14 02:12:54;;;;;;;;;;;4.70;99.90;;;;;;5091078;27;19998;-76
2023/12/14 02:15:20;;;;;;;;;;;4.70;99.90;;;;;;5110791;27;19931;-76
2023/12/14 02:17:46;;;;;;;;;;;4.70;99.90;;;;;;5106591;27;19939;-77
2023/12/14 02:20:11;;;;;;;;;;;4.70;99.90;;;;;;5106416;27;20266;-77
2023/12/14 02:22:56;;;;;;;;;;;4.70;99.90;;;;;;5108911;27;20377;-77
2023/12/14 02:25:22;;;;;;;;;;;4.70;99.90;;;;;;5111801;27;19963;-77
2023/12/14 02:27:48;;;;;;;;;;;4.70;99.90;;;;;;5109541;27;19924;-76
2023/12/14 02:30:14;;;;;;;;;;;4.70;99.90;;;;;;5086445;27;19923;-77
2023/12/14 02:32:40;;;;;;;;;;;4.70;99.90;;;;;;5087899;27;19938;-77
2023/12/14 02:35:06;;;;;;;;;;;4.70;99.90;;;;;;5108555;27;19935;-77
2023/12/14 02:37:32;;;;;;;;;;;4.70;99.90;;;;;;5110375;27;19938;-77
2023/12/14 02:39:58;;;;;;;;;;;4.70;99.90;;;;;;5096652;27;19927;-77
2023/12/14 02:42:24;;;;;;;;;;;4.70;99.90;;;;;;5109465;27;19987;-77
2023/12/14 02:44:50;;;;;;;;;;;4.70;99.90;;;;;;5108649;27;19974;-76
2023/12/14 02:47:15;;;;;;;;;;;4.70;99.90;;;;;;5105493;27;20221;-76
2023/12/14 02:49:41;;;;;;;;;;;4.70;99.90;;;;;;5117086;27;20070;-76
2023/12/14 02:52:07;;;;;;;;;;;4.70;99.90;;;;;;5105559;27;20407;-76
2023/12/14 02:54:32;;;;;;;;;;;5.50;99.90;;;;;;5105356;27;20290;-77
2023/12/14 02:56:58;;;;;;;;;;;4.70;99.90;;;;;;5114015;27;19961;-77
2023/12/14 02:59:23;;;;;;;;;;;4.70;99.90;;;;;;5090662;27;19935;-77
2023/12/14 03:01:49;;;;;;;;;;;4.70;99.90;;;;;;5070608;27;20218;-77
2023/12/14 03:04:15;;;;;;;;;;;5.00;99.90;;;;;;5101516;27;20432;-77
2023/12/14 03:06:40;;;;;;;;;;;4.80;99.90;;;;;;5108600;27;19931;-77
2023/12/14 03:09:06;;;;;;;;;;;4.70;99.90;;;;;;5096573;27;20273;-76
2023/12/14 03:11:31;;;;;;;;;;;4.70;99.90;;;;;;5104035;27;20281;-77
2023/12/14 03:13:57;;;;;;;;;;;4.70;99.90;;;;;;5105704;27;20385;-77
2023/12/14 03:16:23;;;;;;;;;;;4.70;99.90;;;;;;5118006;27;20025;-76
2023/12/14 03:18:53;;;;;;;;;;;4.70;99.90;;;;;;5105972;27;19934;-76
2023/12/14 03:21:18;;;;;;;;;;;4.70;99.90;;;;;;5108907;27;19979;-77
2023/12/14 03:23:45;;;;;;;;;;;4.70;99.90;;;;;;5094181;27;19927;-77
2023/12/14 03:26:10;;;;;;;;;;;4.70;99.90;;;;;;5107568;27;19924;-77
2023/12/14 03:28:38;;;;;;;;;;;4.70;99.90;;;;;;5105884;27;20222;-77
2023/12/14 03:31:03;;;;;;;;;;;4.70;99.90;;;;;;5107583;27;20007;-77
2023/12/14 03:33:29;;;;;;;;;;;4.70;99.90;;;;;;5090500;27;20549;-77
2023/12/14 03:35:55;;;;;;;;;;;4.70;99.90;;;;;;5098307;27;19927;-77
2023/12/14 03:38:20;;;;;;;;;;;4.70;99.90;;;;;;5109692;27;19927;-76
2023/12/14 03:40:46;;;;;;;;;;;4.70;99.90;;;;;;5107249;27;20220;-77
2023/12/14 03:43:12;;;;;;;;;;;4.70;99.90;;;;;;5096007;27;20313;-77
2023/12/14 03:45:37;;;;;;;;;;;4.70;99.90;;;;;;5108647;27;19927;-76
2023/12/14 03:48:03;;;;;;;;;;;4.70;99.90;;;;;;5108694;27;19923;-78
2023/12/14 03:50:29;;;;;;;;;;;4.70;99.90;;;;;;5088983;27;19927;-77
2023/12/14 03:52:54;;;;;;;;;;;4.70;99.90;;;;;;5108810;27;20040;-77
2023/12/14 03:55:20;;;;;;;;;;;4.70;99.90;;;;;;5105682;27;20251;-77
2023/12/14 03:57:46;;;;;;;;;;;4.70;99.90;;;;;;5107008;27;19927;-77
2023/12/14 04:00:12;;;;;;;;;;;4.70;99.90;;;;;;5091142;27;20616;-78
2023/12/14 04:02:38;;;;;;;;;;;4.70;99.90;;;;;;5104741;27;19930;-77
2023/12/14 04:05:04;;;;;;;;;;;4.70;99.90;;;;;;5094692;27;20139;-78
2023/12/14 04:07:30;;;;;;;;;;;4.70;99.90;;;;;;5111122;27;20013;-77
2023/12/14 04:09:56;;;;;;;;;;;4.70;99.90;;;;;;5110454;27;19975;-78
2023/12/14 04:12:21;;;;;;;;;;;4.80;99.90;;;;;;5092794;27;20449;-77
2023/12/14 04:14:49;;;;;;;;;;;4.70;99.90;;;;;;5100396;27;20590;-77
2023/12/14 04:17:15;;;;;;;;;;;4.70;99.90;;;;;;5081278;27;19935;-77
2023/12/14 04:19:41;;;;;;;;;;;4.70;99.90;;;;;;5097328;27;19923;-78
2023/12/14 04:22:07;;;;;;;;;;;4.70;99.90;;;;;;5077745;27;20383;-77
2023/12/14 04:24:32;;;;;;;;;;;4.70;99.90;;;;;;5085314;27;19928;-77
2023/12/14 04:26:58;;;;;;;;;;;4.70;99.90;;;;;;5103815;27;19986;-77
2023/12/14 04:29:23;;;;;;;;;;;4.70;99.90;;;;;;5107155;27;19981;-77
2023/12/14 04:31:49;;;;;;;;;;;5.10;99.90;;;;;;5093993;27;20354;-77
2023/12/14 04:34:15;;;;;;;;;;;4.70;99.90;;;;;;5109112;27;19927;-77
2023/12/14 04:36:42;;;;;;;;;;;4.70;99.90;;;;;;5104798;27;19945;-77
2023/12/14 04:39:07;;;;;;;;;;;4.70;99.90;;;;;;5105628;27;19974;-75
2023/12/14 04:41:36;;;;;;;;;;;4.70;99.90;;;;;;5125476;27;20027;-76
2023/12/14 04:44:01;;;;;;;;;;;4.70;99.90;;;;;;5111301;27;19950;-77
2023/12/14 04:46:27;;;;;;;;;;;4.70;99.90;;;;;;5068683;27;20245;-77
2023/12/14 04:48:53;;;;;;;;;;;4.70;99.90;;;;;;5102783;27;19927;-77
2023/12/14 04:51:18;;;;;;;;;;;4.70;99.90;;;;;;5105470;27;19984;-77
2023/12/14 04:53:44;;;;;;;;;;;4.70;99.90;;;;;;5110202;27;19930;-77
2023/12/14 04:56:11;;;;;;;;;;;4.70;99.90;;;;;;5104098;27;19939;-77
2023/12/14 04:58:38;;;;;;;;;;;4.70;99.90;;;;;;5109985;27;20294;-77
2023/12/14 05:01:03;;;;;;;;;;;4.70;99.90;;;;;;5093784;27;19928;-78
2023/12/14 05:03:29;;;;;;;;;;;4.70;99.90;;;;;;5093017;27;19927;-77
2023/12/14 05:05:55;;;;;;;;;;;4.70;99.90;;;;;;5126128;27;19967;-77
2023/12/14 05:08:20;;;;;;;;;;;4.70;99.90;;;;;;5092823;27;20212;-77
2023/12/14 05:10:46;;;;;;;;;;;4.70;99.90;;;;;;5107325;27;19931;-77
2023/12/14 05:13:11;;;;;;;;;;;4.70;99.90;;;;;;5089575;27;19935;-77
2023/12/14 05:15:37;;;;;;;;;;;4.70;99.90;;;;;;5112499;27;19931;-77
2023/12/14 05:18:03;;;;;;;;;;;4.70;99.90;;;;;;5105561;27;20377;-77
2023/12/14 05:20:29;;;;;;;;;;;4.70;99.90;;;;;;5091902;27;19928;-78
2023/12/14 05:22:55;;;;;;;;;;;4.70;99.90;;;;;;5104882;27;19931;-76
2023/12/14 05:25:20;;;;;;;;;;;4.70;99.90;;;;;;5103867;27;20277;-75
2023/12/14 05:27:46;;;;;;;;;;;4.70;99.90;;;;;;5104129;27;19926;-77
2023/12/14 05:30:12;;;;;;;;;;;4.70;99.90;;;;;;5091193;27;20404;-77
2023/12/14 05:32:37;;;;;;;;;;;4.70;99.90;;;;;;5101655;27;20031;-77
2023/12/14 05:35:03;;;;;;;;;;;4.70;99.90;;;;;;5106946;27;20270;-77
2023/12/14 05:37:29;;;;;;;;;;;4.70;99.90;;;;;;5108933;27;19930;-76
2023/12/14 05:39:54;;;;;;;;;;;4.70;99.90;;;;;;5094154;27;20326;-77
2023/12/14 05:42:20;;;;;;;;;;;4.70;99.90;;;;;;5105413;27;20402;-76
2023/12/14 05:44:46;;;;;;;;;;;4.70;99.90;;;;;;5109016;27;19976;-77
2023/12/14 05:47:12;;;;;;;;;;;4.70;99.90;;;;;;5099278;27;19923;-77
2023/12/14 05:49:40;;;;;;;;;;;4.70;99.90;;;;;;5111309;27;19976;-77
2023/12/14 05:52:07;;;;;;;;;;;4.70;99.90;;;;;;5105813;27;19927;-77
2023/12/14 05:54:32;;;;;;;;;;;4.70;99.90;;;;;;5106667;27;19966;-77
2023/12/14 05:56:58;;;;;;;;;;;4.70;99.90;;;;;;5111635;27;20018;-77
2023/12/14 05:59:24;;;;;;;;;;;4.70;99.90;;;;;;5111782;27;20549;-77
2023/12/14 06:01:50;;;;;;;;;;;4.70;99.90;;;;;;5104763;27;19978;-77
2023/12/14 06:04:15;;;;;;;;;;;4.70;99.90;;;;;;5101589;27;20559;-77
2023/12/14 06:06:41;;;;;;;;;;;4.70;99.90;;;;;;5112939;27;19924;-77
2023/12/14 06:09:10;;;;;;;;;;;4.70;99.90;;;;;;5128202;27;19930;-77
2023/12/14 06:11:36;;;;;;;;;;;4.70;99.90;;;;;;5112339;27;19927;-77
2023/12/14 06:14:02;;;;;;;;;;;4.70;99.90;;;;;;5093294;27;20391;-77
2023/12/14 06:16:27;;;;;;;;;;;4.70;99.90;;;;;;5104682;27;20026;-77
2023/12/14 06:18:53;;;;;;;;;;;5.00;99.90;;;;;;5109090;27;19927;-77
2023/12/14 06:21:19;;;;;;;;;;;4.70;99.90;;;;;;5105757;27;19967;-77
2023/12/14 06:23:44;;;;;;;;;;;4.70;99.90;;;;;;5106689;27;20362;-77
2023/12/14 06:26:10;;;;;;;;;;;4.70;99.90;;;;;;5098055;27;20801;-77
2023/12/14 06:28:37;;;;;;;;;;;4.70;99.90;;;;;;5109460;27;19968;-77
2023/12/14 06:31:02;;;;;;;;;;;4.70;99.90;;;;;;5104711;27;21345;-77
2023/12/14 06:33:28;;;;;;;;;;;4.70;99.90;;;;;;5088478;27;20368;-77
2023/12/14 06:35:53;;;;;;;;;;;4.70;99.90;;;;;;5111845;27;20345;-77
2023/12/14 06:38:19;;;;;;;;;;;4.70;99.90;;;;;;5105485;27;20368;-77
2023/12/14 06:40:45;;;;;;;;;;;4.70;99.90;;;;;;5111121;27;19927;-77
2023/12/14 06:43:10;;;;;;;;;;;4.70;99.90;;;;;;5076664;27;20364;-77
2023/12/14 06:45:39;;;;;;;;;;;4.70;99.90;;;;;;5112984;27;20084;-77
2023/12/14 06:48:05;;;;;;;;;;;3.60;99.90;;;;;;5113581;27;20097;-77
2023/12/14 06:50:31;;;;;;;;;;;4.70;99.90;;;;;;5094738;27;20331;-77
2023/12/14 06:52:57;;;;;;;;;;;4.70;99.90;;;;;;5110414;27;19979;-77
2023/12/14 06:55:22;;;;;;;;;;;4.70;99.90;;;;;;5105856;27;20377;-77
2023/12/14 06:57:48;;;;;;;;;;;4.70;99.90;;;;;;5112088;27;19935;-77
2023/12/14 07:00:14;;;;;;;;;;;4.70;99.90;;;;;;5107760;27;19927;-76
2023/12/14 07:02:40;;;;;;;;;;;4.70;99.90;;;;;;5124098;27;20879;-77
2023/12/14 07:05:05;;;;;;;;;;;4.70;99.90;;;;;;5108801;27;19919;-76
2023/12/14 07:07:31;;;;;;;;;;;4.70;99.90;;;;;;5095826;27;19923;-75
2023/12/14 07:09:57;;;;;;;;;;;4.70;99.90;;;;;;5093035;27;19927;-76
2023/12/14 07:12:22;;;;;;;;;;;4.70;99.90;;;;;;5101656;27;21155;-77
2023/12/14 07:14:48;;;;;;;;;;;4.70;99.90;;;;;;5094258;27;20332;-77
2023/12/14 07:17:14;;;;;;;;;;;4.70;99.90;;;;;;5110708;27;19930;-76
2023/12/14 07:19:39;;;;;;;;;;;4.70;99.90;;;;;;5090550;27;19949;-77
2023/12/14 07:22:05;;;;;;;;;;;4.70;99.90;;;;;;5093333;27;19929;-76
2023/12/14 07:24:30;;;;;;;;;;;4.70;99.90;;;;;;5105984;27;19927;-77
2023/12/14 07:26:56;;;;;;;;;;;4.70;99.90;;;;;;5092601;27;19993;-77
2023/12/14 07:29:23;;;;;;;;;;;4.70;99.90;;;;;;5106555;27;20041;-76
2023/12/14 07:31:49;;;;;;;;;;;4.70;99.90;;;;;;5104872;27;19923;-76
2023/12/14 07:34:14;;;;;;;;;;;4.70;99.90;;;;;;5106225;27;19994;-77
2023/12/14 07:36:40;;;;;;;;;;;4.70;99.90;;;;;;5095159;27;20026;-77
2023/12/14 07:39:06;;;;;;;;;;;4.70;99.90;;;;;;5110403;27;19997;-76
2023/12/14 07:41:32;;;;;;;;;;;4.70;99.90;;;;;;5121823;27;20440;-76
2023/12/14 07:43:58;;;;;;;;;;;4.70;99.90;;;;;;5102671;27;19931;-77
2023/12/14 07:46:23;;;;;;;;;;;4.70;99.90;;;;;;5098455;27;19928;-77
2023/12/14 07:48:49;;;;;;;;;;;4.70;99.90;;;;;;5091681;27;19924;-77
2023/12/14 07:51:15;;;;;;;;;;;4.60;99.90;;;;;;5091660;27;20128;-78
2023/12/14 07:53:42;;;;;;;;;;;4.60;99.90;;;;;;5104856;27;19943;-78
2023/12/14 07:56:09;;;;;;;;;;;5.80;99.90;;;;;;5102888;27;19953;-78
2023/12/14 07:58:34;;;;;;;;;;;4.60;99.90;;;;;;5076575;27;20373;-78
2023/12/14 08:01:00;;;;;;;;;;;4.60;99.90;;;;;;5095092;27;20009;-78
2023/12/14 08:03:25;;;;;;;;;;;4.60;99.90;;;;;;5103699;27;20454;-79
2023/12/14 08:05:51;;;;;;;;;;;4.60;99.90;;;;;;5091159;27;19950;-78
2023/12/14 08:08:17;;;;;;;;;;;4.60;99.90;;;;;;5104354;27;20430;-77
2023/12/14 08:10:42;;;;;;;;;;;4.60;99.90;;;;;;5093275;27;19934;-78
2023/12/14 08:13:21;;;;;;;;;;;4.60;99.90;;;;;;5107618;27;20370;-77
2023/12/14 08:15:46;;;;;;;;;;;4.90;99.90;;;;;;5091611;27;19923;-77
2023/12/14 08:18:12;;;;;;;;;;;4.60;99.90;;;;;;5106273;27;20991;-77
2023/12/14 08:20:37;;;;;;;;;;;4.70;99.90;;;;;;5111272;27;20373;-77
2023/12/14 08:23:03;;;;;;;;;;;4.90;99.90;;;;;;5089194;27;19934;-77
2023/12/14 08:25:32;;;;;;;;;;;4.60;99.90;;;;;;5122912;27;19970;-77
2023/12/14 08:27:57;;;;;;;;;;;4.70;99.90;;;;;;5101289;27;20046;-77
2023/12/14 08:30:23;;;;;;;;;;;4.60;99.90;;;;;;5106793;27;19970;-78
2023/12/14 08:32:49;;;;;;;;;;;4.50;99.90;;;;;;5086720;27;20494;-78
2023/12/14 08:35:15;;;;;;;;;;;4.50;99.90;;;;;;5109482;27;19923;-78
2023/12/14 08:37:40;;;;;;;;;;;4.50;99.90;;;;;;5111603;27;19931;-78
2023/12/14 08:40:07;;;;;;;;;;;4.50;99.90;;;;;;5107401;27;19923;-77
2023/12/14 08:42:32;;;;;;;;;;;4.50;99.90;;;;;;5107915;27;20275;-76
2023/12/14 08:44:58;;;;;;;;;;;4.60;99.90;;;;;;5105459;27;20003;-77
2023/12/14 08:47:24;;;;;;;;;;;4.60;99.90;;;;;;5116017;27;21608;-77
2023/12/14 08:49:50;;;;;;;;;;;3.90;99.90;;;;;;5077041;27;20366;-78
2023/12/14 08:52:17;;;;;;;;;;;5.00;99.90;;;;;;5101398;27;19931;-77
2023/12/14 08:54:44;;;;;;;;;;;5.20;99.90;;;;;;5111095;27;20002;-78
2023/12/14 08:57:10;;;;;;;;;;;5.20;99.90;;;;;;5094691;27;19928;-78
2023/12/14 08:59:35;;;;;;;;;;;5.20;99.90;;;;;;5100312;27;19938;-77
2023/12/14 09:02:01;;;;;;;;;;;5.20;99.90;;;;;;5082277;27;20446;-78
2023/12/14 09:04:27;;;;;;;;;;;5.20;99.90;;;;;;5106402;27;20010;-77
2023/12/14 09:06:53;;;;;;;;;;;5.20;99.90;;;;;;5111389;27;20004;-78
2023/12/14 09:09:18;;;;;;;;;;;5.20;99.90;;;;;;5110101;27;19927;-77
2023/12/14 09:11:44;;;;;;;;;;;6.00;99.90;;;;;;5108180;27;19930;-77
2023/12/14 09:14:10;;;;;;;;;;;5.20;99.90;;;;;;5084921;27;19927;-78
2023/12/14 09:16:36;;;;;;;;;;;5.20;99.90;;;;;;5111488;27;19978;-78
2023/12/14 09:19:01;;;;;;;;;;;5.20;99.90;;;;;;5114377;27;19923;-77
2023/12/14 09:21:27;;;;;;;;;;;5.20;99.90;;;;;;5114335;27;19928;-78
2023/12/14 09:23:53;;;;;;;;;;;5.20;99.90;;;;;;5117743;27;20046;-77
2023/12/14 09:26:19;;;;;;;;;;;5.30;99.90;;;;;;5118653;27;19985;-76
2023/12/14 09:28:44;;;;;;;;;;;5.40;99.90;;;;;;5086582;27;19966;-77
2023/12/14 09:31:10;;;;;;;;;;;5.60;99.90;;;;;;5115071;27;19931;-78
2023/12/14 09:33:36;;;;;;;;;;;5.90;99.90;;;;;;5111431;27;19931;-77
2023/12/14 09:36:02;;;;;;;;;;;6.10;99.90;;;;;;5116435;27;19930;-77
2023/12/14 09:38:28;;;;;;;;;;;6.20;99.90;;;;;;5116189;27;19933;-77
2023/12/14 09:40:53;;;;;;;;;;;6.40;99.90;;;;;;5111197;27;19937;-78
2023/12/14 09:43:20;;;;;;;;;;;6.60;99.90;;;;;;5112332;27;20263;-77
2023/12/14 09:45:47;;;;;;;;;;;6.80;99.90;;;;;;5095969;27;20333;-79
2023/12/14 09:48:13;;;;;;;;;;;6.80;99.90;;;;;;5112591;27;19944;-77
2023/12/14 09:50:39;;;;;;;;;;;6.90;99.90;;;;;;5108295;27;19931;-78
2023/12/14 09:53:04;;;;;;;;;;;6.80;99.90;;;;;;5098632;27;20002;-77
2023/12/14 09:55:31;;;;;;;;;;;6.80;99.90;;;;;;5110002;27;19971;-77
2023/12/14 09:57:56;;;;;;;;;;;6.80;99.90;;;;;;5097921;27;20150;-78
2023/12/14 10:00:38;;;;;;;;;;;6.80;99.90;;;;;;5127959;27;20441;-77
2023/12/14 10:03:25;;;;;;;;;;;6.80;99.90;;;;;;5118315;27;19927;-77
2023/12/14 10:05:51;;;;;;;;;;;6.80;99.90;;;;;;5107614;27;20947;-77
2023/12/14 10:08:17;;;;;;;;;;;6.80;99.90;;;;;;5110425;27;20010;-79
2023/12/14 10:10:43;;;;;;;;;;;6.90;99.90;;;;;;5099982;27;20558;-77
2023/12/14 10:13:09;;;;;;;;;;;7.00;99.90;;;;;;5108669;27;19927;-77
2023/12/14 10:15:42;;;;;;;;;;;5.80;99.90;;;;;;5113055;27;19924;-77
2023/12/14 10:18:07;;;;;;;;;;;6.90;99.90;;;;;;5104373;27;20388;-77
2023/12/14 10:20:33;;;;;;;;;;;6.80;99.90;;;;;;5132091;27;20011;-77
2023/12/14 10:22:58;;;;;;;;;;;6.60;99.90;;;;;;5115178;27;19927;-77
2023/12/14 10:25:24;;;;;;;;;;;6.40;99.90;;;;;;5108452;27;19931;-77
2023/12/14 10:27:53;;;;;;;;;;;6.30;99.90;;;;;;5119950;27;20034;-77
2023/12/14 10:30:19;;;;;;;;;;;6.20;99.90;;;;;;5110546;27;20022;-77
2023/12/14 10:32:48;;;;;;;;;;;6.20;99.90;;;;;;5130083;27;21194;-78
2023/12/14 10:35:16;;;;;;;;;;;6.10;99.90;;;;;;5109098;27;19967;-77
2023/12/14 10:37:42;;;;;;;;;;;6.10;99.90;;;;;;5113813;27;20404;-76
2023/12/14 10:40:10;;;;;;;;;;;6.00;99.90;;;;;;5133912;27;19927;-79
2023/12/14 10:42:36;;;;;;;;;;;6.00;99.90;;;;;;5111880;27;19939;-79
2023/12/14 10:45:02;;;;;;;;;;;6.00;99.90;;;;;;5114730;27;19991;-77
2023/12/14 10:47:28;;;;;;;;;;;6.00;99.90;;;;;;5111344;27;19927;-78
2023/12/14 10:49:55;;;;;;;;;;;6.00;99.90;;;;;;5116240;27;20447;-77
2023/12/14 10:52:22;;;;;;;;;;;5.90;99.90;;;;;;5102324;27;19968;-78
2023/12/14 10:54:52;;;;;;;;;;;5.90;99.90;;;;;;5131292;27;20398;-78
2023/12/14 10:57:18;;;;;;;;;;;5.80;99.90;;;;;;5098317;27;19985;-78
2023/12/14 10:59:44;;;;;;;;;;;5.90;99.90;;;;;;5109557;27;19966;-77
2023/12/14 11:02:10;;;;;;;;;;;5.90;99.90;;;;;;5110284;27;20348;-77
2023/12/14 11:04:55;;;;;;;;;;;5.90;99.90;;;;;;5113286;27;19946;-78
2023/12/14 11:07:40;;;;;;;;;;;5.90;99.90;;;;;;5116670;27;20932;-78
2023/12/14 11:10:06;;;;;;;;;;;5.90;99.90;;;;;;5115673;27;19923;-78
2023/12/14 11:12:33;;;;;;;;;;;6.00;99.90;;;;;;5114985;27;19927;-78
2023/12/14 11:14:59;;;;;;;;;;;6.00;99.90;;;;;;5109048;27;20397;-78
2023/12/14 11:17:24;;;;;;;;;;;6.10;99.90;;;;;;5091699;27;19919;-77
2023/12/14 11:19:50;;;;;;;;;;;6.10;99.90;;;;;;5091736;27;20301;-77
2023/12/14 11:22:23;;;;;;;;;;;6.10;99.90;;;;;;5099638;27;19931;-78
2023/12/14 11:24:53;;;;;;;;;;;6.00;99.90;;;;;;5111475;27;19931;-78
2023/12/14 11:27:26;;;;;;;;;;;6.00;99.90;;;;;;5103568;27;19933;-76
2023/12/14 11:29:52;;;;;;;;;;;6.00;99.90;;;;;;5109639;27;19928;-78
2023/12/14 11:32:19;;;;;;;;;;;6.00;99.90;;;;;;5114044;27;19927;-77
2023/12/14 11:34:48;;;;;;;;;;;6.00;99.90;;;;;;5109581;27;19927;-77
2023/12/14 11:37:14;;;;;;;;;;;6.10;99.90;;;;;;5109614;27;19946;-78
2023/12/14 11:39:40;;;;;;;;;;;6.20;99.90;;;;;;5109971;27;19935;-78
2023/12/14 11:42:10;;;;;;;;;;;6.20;99.90;;;;;;5093922;27;19927;-79
2023/12/14 11:44:37;;;;;;;;;;;6.20;99.90;;;;;;5115286;27;19977;-79
2023/12/14 11:47:02;;;;;;;;;;;6.30;99.90;;;;;;5112230;27;19933;-77
2023/12/14 11:49:29;;;;;;;;;;;6.30;99.90;;;;;;5115861;27;19927;-77
2023/12/14 11:51:55;;;;;;;;;;;6.20;99.90;;;;;;5108510;27;19927;-77
2023/12/14 11:54:20;;;;;;;;;;;6.20;99.90;;;;;;5107849;27;19931;-78
2023/12/14 11:56:47;;;;;;;;;;;6.10;99.90;;;;;;5126771;27;19990;-78
2023/12/14 11:59:14;;;;;;;;;;;6.10;99.90;;;;;;5116057;27;20063;-77
2023/12/14 12:01:53;;;;;;;;;;;6.10;99.90;;;;;;5112354;27;19938;-78
2023/12/14 12:04:18;;;;;;;;;;;6.10;99.90;;;;;;5108399;27;19927;-77
2023/12/14 12:06:45;;;;;;;;;;;6.00;99.90;;;;;;5119131;27;20336;-77
2023/12/14 12:09:12;;;;;;;;;;;6.00;99.90;;;;;;5110056;27;19932;-78
2023/12/14 12:11:37;;;;;;;;;;;6.00;99.90;;;;;;5076231;27;20365;-75
2023/12/14 12:14:04;;;;;;;;;;;6.00;99.90;;;;;;5093705;27;19919;-78
2023/12/14 12:16:31;;;;;;;;;;;6.00;99.90;;;;;;5108110;27;20456;-77
2023/12/14 12:18:56;;;;;;;;;;;6.10;99.90;;;;;;5097473;27;19931;-77
2023/12/14 12:21:22;;;;;;;;;;;6.10;99.90;;;;;;5113185;27;19949;-77
2023/12/14 12:23:48;;;;;;;;;;;6.10;99.90;;;;;;5111421;27;19928;-77
2023/12/14 12:26:14;;;;;;;;;;;6.10;99.90;;;;;;5109856;27;19927;-77
2023/12/14 12:28:40;;;;;;;;;;;6.10;99.90;;;;;;5110890;27;19928;-77
2023/12/14 12:31:05;;;;;;;;;;;6.10;99.90;;;;;;5106169;27;20275;-78
2023/12/14 12:33:37;;;;;;;;;;;6.10;99.90;;;;;;5093710;27;19930;-77
2023/12/14 12:36:03;;;;;;;;;;;6.10;99.90;;;;;;5093759;27;19927;-77
2023/12/14 12:38:28;;;;;;;;;;;6.10;99.90;;;;;;5093870;27;19928;-77
2023/12/14 12:40:55;;;;;;;;;;;6.10;99.90;;;;;;5113244;27;19928;-77
2023/12/14 12:43:21;;;;;;;;;;;6.10;99.90;;;;;;5087331;27;20468;-78
2023/12/14 12:45:46;;;;;;;;;;;6.10;99.90;;;;;;5111903;27;19942;-77
2023/12/14 12:48:13;;;;;;;;;;;6.20;99.90;;;;;;5107517;27;19923;-78
2023/12/14 12:50:38;;;;;;;;;;;6.20;99.90;;;;;;5108113;27;19927;-78
2023/12/14 12:53:04;;;;;;;;;;;6.20;99.90;;;;;;5126101;27;19953;-79
2023/12/14 12:55:30;;;;;;;;;;;6.20;99.90;;;;;;5104405;27;20386;-77
2023/12/14 12:57:56;;;;;;;;;;;6.20;99.90;;;;;;5112468;27;20353;-78
2023/12/14 13:00:22;;;;;;;;;;;6.20;99.90;;;;;;5108730;27;19928;-79
2023/12/14 13:02:48;;;;;;;;;;;6.20;99.90;;;;;;5096156;27;19932;-79
2023/12/14 13:05:14;;;;;;;;;;;6.10;99.90;;;;;;5103770;27;19932;-78
2023/12/14 13:07:44;;;;;;;;;;;6.10;99.90;;;;;;5109247;27;19931;-78
2023/12/14 13:10:10;;;;;;;;;;;6.10;99.90;;;;;;5126632;27;19958;-77
2023/12/14 13:12:36;;;;;;;;;;;6.10;99.90;;;;;;5109630;27;20018;-79
2023/12/14 13:15:01;;;;;;;;;;;6.10;99.90;;;;;;5105314;27;20270;-79
2023/12/14 13:17:27;;;;;;;;;;;6.10;99.90;;;;;;5094664;27;20270;-77
2023/12/14 13:19:53;;;;;;;;;;;6.10;99.90;;;;;;5095950;27;20271;-78
2023/12/14 13:22:18;;;;;;;;;;;6.10;99.90;;;;;;5078176;27;20218;-79
2023/12/14 13:24:44;;;;;;;;;;;6.10;99.90;;;;;;5102781;27;19934;-78
2023/12/14 13:27:10;;;;;;;;;;;6.10;99.90;;;;;;5098470;27;20377;-78
2023/12/14 13:29:36;;;;;;;;;;;6.10;99.90;;;;;;5088612;27;20081;-78
2023/12/14 13:32:01;;;;;;;;;;;6.10;99.90;;;;;;5097001;27;20377;-78
2023/12/14 13:34:28;;;;;;;;;;;6.10;99.90;;;;;;5089013;27;20021;-77
2023/12/14 13:36:56;;;;;;;;;;;6.10;99.90;;;;;;5102780;27;20013;-78
2023/12/14 13:39:22;;;;;;;;;;;6.10;99.90;;;;;;5094226;27;19935;-78
2023/12/14 13:41:48;;;;;;;;;;;6.10;99.90;;;;;;5091779;27;20431;-78
2023/12/14 13:44:14;;;;;;;;;;;6.10;99.90;;;;;;5091375;27;19931;-78
2023/12/14 13:46:39;;;;;;;;;;;6.10;99.90;;;;;;5123532;27;19931;-77
2023/12/14 13:49:05;;;;;;;;;;;6.10;99.90;;;;;;5102549;27;19931;-77
2023/12/14 13:51:33;;;;;;;;;;;6.00;99.90;;;;;;5091826;27;19942;-76
2023/12/14 13:53:59;;;;;;;;;;;6.00;99.90;;;;;;5102272;27;19928;-78
2023/12/14 13:56:25;;;;;;;;;;;6.00;99.90;;;;;;5096265;27;20223;-77
2023/12/14 13:58:50;;;;;;;;;;;6.00;99.90;;;;;;5096156;27;20665;-79
2023/12/14 14:01:16;;;;;;;;;;;6.00;99.90;;;;;;5099634;27;19923;-78
2023/12/14 14:03:42;;;;;;;;;;;6.00;99.90;;;;;;5117896;27;19927;-77
2023/12/14 14:06:08;;;;;;;;;;;6.00;99.90;;;;;;5101079;27;19927;-78
2023/12/14 14:08:34;;;;;;;;;;;6.00;99.90;;;;;;5114344;27;20441;-77
2023/12/14 14:11:01;;;;;;;;;;;6.00;99.90;;;;;;5118600;27;19927;-77
2023/12/14 14:13:26;;;;;;;;;;;6.00;99.90;;;;;;5116538;27;19932;-77
2023/12/14 14:15:52;;;;;;;;;;;6.00;99.90;;;;;;5092968;27;20448;-78
2023/12/14 14:18:18;;;;;;;;;;;5.90;99.90;;;;;;5101355;27;19931;-78
2023/12/14 14:20:44;;;;;;;;;;;5.90;99.90;;;;;;5113831;27;19931;-78
2023/12/14 14:23:09;;;;;;;;;;;5.90;99.90;;;;;;5090384;27;19972;-78
2023/12/14 14:25:35;;;;;;;;;;;5.90;99.90;;;;;;5110278;27;20019;-78